createdAt,value
2022-12-13T00:00:49.990Z,-3.50
2022-12-13T00:03:17.595Z,-3.50
2022-12-13T00:05:45.975Z,-3.30
2022-12-13T00:08:14.955Z,-3.50
2022-12-13T00:10:42.630Z,-3.60
2022-12-13T00:13:10.169Z,-3.60
2022-12-13T00:15:37.780Z,-3.90
2022-12-13T00:18:05.706Z,-3.80
2022-12-13T00:20:33.583Z,-3.70
2022-12-13T00:23:01.171Z,-3.70
2022-12-13T00:25:30.090Z,-3.60
2022-12-13T00:27:57.599Z,-3.70
2022-12-13T00:30:25.763Z,-3.70
2022-12-13T00:32:53.382Z,-3.70
2022-12-13T00:35:20.946Z,-3.70
2022-12-13T00:37:48.838Z,-3.70
2022-12-13T00:40:16.804Z,-3.60
2022-12-13T00:42:45.701Z,-3.60
2022-12-13T00:45:13.771Z,-3.60
2022-12-13T00:47:41.528Z,-3.60
2022-12-13T00:50:09.882Z,-3.60
2022-12-13T00:52:37.523Z,-3.50
2022-12-13T00:55:05.420Z,-3.50
2022-12-13T00:57:33.588Z,-3.50
2022-12-13T01:00:02.565Z,-3.50
2022-12-13T01:02:30.150Z,-3.50
2022-12-13T01:04:58.088Z,-3.50
2022-12-13T01:07:25.674Z,-3.60
2022-12-13T01:09:53.294Z,-3.60
2022-12-13T01:12:20.866Z,-3.60
2022-12-13T01:14:53.058Z,-3.70
2022-12-13T01:17:24.796Z,-3.70
2022-12-13T01:19:52.368Z,-3.70
2022-12-13T01:22:20.123Z,-3.60
2022-12-13T01:24:47.832Z,-3.60
2022-12-13T01:27:15.454Z,-3.60
2022-12-13T01:29:43.007Z,-3.50
2022-12-13T01:32:10.547Z,-3.50
2022-12-13T01:34:39.705Z,-3.40
2022-12-13T01:37:07.291Z,-3.40
2022-12-13T01:39:38.273Z,-3.40
2022-12-13T01:42:06.275Z,-3.50
2022-12-13T01:44:59.261Z,-3.60
2022-12-13T01:47:29.921Z,-3.70
2022-12-13T01:50:00.085Z,-3.80
2022-12-13T01:52:29.445Z,-3.60
2022-12-13T01:54:57.612Z,-3.90
2022-12-13T01:57:32.081Z,-3.80
2022-12-13T01:59:59.665Z,-3.80
2022-12-13T02:02:27.228Z,-3.70
2022-12-13T02:04:57.234Z,-3.70
2022-12-13T02:07:27.620Z,-3.70
2022-12-13T02:09:57.318Z,-3.70
2022-12-13T02:17:44.825Z,-3.60
2022-12-13T02:20:27.455Z,-3.60
2022-12-13T02:23:07.087Z,-3.70
2022-12-13T02:25:45.512Z,-3.70
2022-12-13T02:28:30.405Z,-3.60
2022-12-13T02:31:04.915Z,-3.60
2022-12-13T02:33:37.727Z,-3.60
2022-12-13T02:36:09.285Z,-3.60
2022-12-13T02:38:39.424Z,-3.60
2022-12-13T02:41:13.567Z,-3.60
2022-12-13T02:43:45.803Z,-3.60
2022-12-13T02:46:16.136Z,-3.60
2022-12-13T02:48:43.834Z,-3.70
2022-12-13T02:51:12.386Z,-3.70
2022-12-13T02:53:41.620Z,-3.70
2022-12-13T02:56:09.174Z,-3.70
2022-12-13T02:58:38.495Z,-3.70
2022-12-13T03:01:28.750Z,-3.70
2022-12-13T03:04:02.651Z,-3.70
2022-12-13T03:06:34.798Z,-3.70
2022-12-13T03:09:10.943Z,-3.60
2022-12-13T03:12:02.601Z,-3.60
2022-12-13T03:14:31.893Z,-3.60
2022-12-13T03:17:01.619Z,-3.60
2022-12-13T03:19:30.599Z,-3.60
2022-12-13T03:21:58.162Z,-3.70
2022-12-13T03:24:25.801Z,-3.60
2022-12-13T03:26:53.370Z,-3.60
2022-12-13T03:29:24.222Z,-3.60
2022-12-13T03:31:52.501Z,-3.60
2022-12-13T03:34:22.329Z,-3.60
2022-12-13T03:36:52.475Z,-3.60
2022-12-13T03:39:20.670Z,-3.70
2022-12-13T03:41:48.327Z,-3.60
2022-12-13T03:44:15.869Z,-3.60
2022-12-13T03:46:43.541Z,-3.60
2022-12-13T03:49:15.367Z,-3.60
2022-12-13T03:51:44.832Z,-3.60
2022-12-13T03:54:13.767Z,-3.50
2022-12-13T03:56:41.360Z,-3.50
2022-12-13T03:59:08.986Z,-3.50
2022-12-13T04:01:36.586Z,-3.50
2022-12-13T04:04:04.245Z,-3.40
2022-12-13T04:06:33.186Z,-3.30
2022-12-13T04:09:01.075Z,-3.20
2022-12-13T04:11:47.428Z,-3.20
2022-12-13T04:14:22.166Z,-3.10
2022-12-13T04:16:51.038Z,-3.10
2022-12-13T04:19:23.665Z,-3.00
2022-12-13T04:21:52.043Z,-2.90
2022-12-13T04:24:19.602Z,-2.90
2022-12-13T04:26:48.526Z,-2.70
2022-12-13T04:29:16.128Z,-2.80
2022-12-13T04:31:43.766Z,-2.70
2022-12-13T04:34:11.357Z,-2.80
2022-12-13T04:36:38.991Z,-2.80
2022-12-13T04:39:22.722Z,-2.70
2022-12-13T04:41:52.569Z,-2.70
2022-12-13T04:44:27.903Z,-2.70
2022-12-13T04:47:01.302Z,-2.40
2022-12-13T04:49:29.430Z,-2.60
2022-12-13T04:52:01.306Z,-2.50
2022-12-13T04:54:35.662Z,-2.50
2022-12-13T04:57:06.483Z,-2.40
2022-12-13T04:59:34.083Z,-2.40
2022-12-13T05:02:01.708Z,-2.40
2022-12-13T05:04:32.972Z,-2.40
2022-12-13T05:07:02.329Z,-2.40
2022-12-13T05:09:29.992Z,-2.30
2022-12-13T05:12:01.823Z,-2.30
2022-12-13T05:14:31.205Z,-2.60
2022-12-13T05:16:58.958Z,-2.80
2022-12-13T05:19:30.881Z,-2.70
2022-12-13T05:22:01.268Z,-2.60
2022-12-13T05:24:30.410Z,-2.70
2022-12-13T05:26:58.102Z,-2.60
2022-12-13T05:29:27.483Z,-2.80
2022-12-13T05:31:56.422Z,-2.70
2022-12-13T05:34:24.211Z,-2.60
2022-12-13T05:36:52.147Z,-2.30
2022-12-13T05:39:28.170Z,-2.20
2022-12-13T05:42:02.021Z,-2.10
2022-12-13T05:44:30.467Z,-2.10
2022-12-13T05:46:59.409Z,-2.00
2022-12-13T05:49:30.218Z,-2.00
2022-12-13T05:51:57.839Z,-1.70
2022-12-13T05:54:25.401Z,-1.90
2022-12-13T05:56:52.984Z,-1.90
2022-12-13T05:59:20.686Z,-1.80
2022-12-13T06:01:48.324Z,-1.90
2022-12-13T06:04:22.762Z,-1.80
2022-12-13T06:06:51.157Z,-1.80
2022-12-13T06:09:19.258Z,-1.50
2022-12-13T06:11:46.840Z,-1.90
2022-12-13T06:14:22.516Z,-1.90
2022-12-13T06:16:51.582Z,-1.80
2022-12-13T06:19:20.788Z,-1.80
2022-12-13T06:21:48.382Z,-1.80
2022-12-13T06:24:16.240Z,-1.80
2022-12-13T06:26:45.496Z,-1.80
2022-12-13T06:29:23.552Z,-1.70
2022-12-13T06:31:53.804Z,-1.90
2022-12-13T06:34:22.813Z,-1.80
2022-12-13T06:36:50.353Z,-1.90
2022-12-13T06:39:18.068Z,-1.80
2022-12-13T06:41:45.684Z,-1.90
2022-12-13T06:44:13.567Z,-1.90
2022-12-13T06:46:41.387Z,-2.00
2022-12-13T06:49:09.066Z,-1.90
2022-12-13T06:51:37.978Z,-2.00
2022-12-13T06:54:05.540Z,-1.60
2022-12-13T06:56:33.678Z,-1.90
2022-12-13T06:59:02.312Z,-1.80
2022-12-13T07:01:36.622Z,-1.80
2022-12-13T07:04:05.025Z,-1.70
2022-12-13T07:06:53.928Z,-1.70
2022-12-13T07:09:21.595Z,-1.60
2022-12-13T07:11:52.294Z,-1.40
2022-12-13T07:14:20.342Z,-1.60
2022-12-13T07:16:47.933Z,-1.70
2022-12-13T07:19:23.912Z,-1.70
2022-12-13T07:21:52.246Z,-1.60
2022-12-13T07:24:21.405Z,-1.70
2022-12-13T07:26:48.954Z,-1.50
2022-12-13T07:29:22.052Z,-1.70
2022-12-13T07:31:50.436Z,-1.50
2022-12-13T07:34:18.231Z,-1.50
2022-12-13T07:36:45.837Z,-1.50
2022-12-13T07:39:13.693Z,-1.60
2022-12-13T07:41:42.575Z,-1.60
2022-12-13T07:44:10.142Z,-1.60
2022-12-13T07:46:37.801Z,-1.60
2022-12-13T07:49:06.161Z,-1.60
2022-12-13T07:51:34.040Z,-1.50
2022-12-13T07:54:06.910Z,-1.50
2022-12-13T07:56:35.145Z,-1.40
2022-12-13T07:59:04.134Z,-1.70
2022-12-13T08:01:34.465Z,-1.70
2022-12-13T08:04:06.068Z,-1.80
2022-12-13T08:06:35.755Z,-1.70
2022-12-13T08:09:03.401Z,-1.60
2022-12-13T08:11:31.411Z,-1.50
2022-12-13T08:13:59.121Z,-1.30
2022-12-13T08:16:29.670Z,-1.30
2022-12-13T08:19:03.283Z,-1.20
2022-12-13T08:24:21.725Z,-1.10
2022-12-13T08:26:49.364Z,-1.10
2022-12-13T08:29:23.097Z,-1.00
2022-12-13T08:32:03.479Z,-0.80
2022-12-13T08:34:31.539Z,-0.90
2022-12-13T08:37:02.525Z,-0.80
2022-12-13T08:39:30.779Z,-0.50
2022-12-13T08:42:16.760Z,-0.80
2022-12-13T08:44:46.984Z,-0.80
2022-12-13T08:47:23.267Z,-0.70
2022-12-13T08:49:54.069Z,-0.70
2022-12-13T08:52:22.411Z,-0.70
2022-12-13T08:54:50.234Z,-0.70
2022-12-13T08:57:17.858Z,-0.60
2022-12-13T08:59:45.523Z,-0.70
2022-12-13T09:02:13.937Z,-0.70
2022-12-13T09:04:43.448Z,-0.60
2022-12-13T09:07:11.023Z,-0.60
2022-12-13T09:09:38.738Z,-0.80
2022-12-13T09:12:10.716Z,-0.70
2022-12-13T09:14:45.046Z,-0.70
2022-12-13T09:17:14.794Z,-0.80
2022-12-13T09:19:58.457Z,-1.00
2022-12-13T09:22:33.249Z,-1.00
2022-12-13T09:25:02.824Z,-1.10
2022-12-13T09:27:30.757Z,-1.00
2022-12-13T09:29:58.432Z,-0.90
2022-12-13T09:32:27.460Z,-0.70
2022-12-13T09:34:56.405Z,-0.60
2022-12-13T09:37:24.068Z,-0.50
2022-12-13T09:39:54.970Z,-0.40
2022-12-13T09:42:30.913Z,-0.40
2022-12-13T09:45:02.458Z,-0.40
2022-12-13T09:47:35.411Z,-0.30
2022-12-13T09:50:07.281Z,-0.20
2022-12-13T09:52:43.036Z,-0.10
2022-12-13T09:55:19.167Z,0.00
2022-12-13T09:57:47.003Z,-0.10
2022-12-13T10:00:16.730Z,0.00
2022-12-13T10:02:45.924Z,0.00
2022-12-13T10:05:34.364Z,0.00
2022-12-13T10:08:07.842Z,0.00
2022-12-13T10:10:35.416Z,0.00
2022-12-13T10:13:09.243Z,0.00
2022-12-13T10:15:38.602Z,0.00
2022-12-13T10:18:07.684Z,0.10
2022-12-13T10:20:36.771Z,0.20
2022-12-13T10:25:54.716Z,0.30
2022-12-13T10:28:32.532Z,0.40
2022-12-13T10:31:00.666Z,0.60
2022-12-13T10:33:30.401Z,0.60
2022-12-13T10:36:07.088Z,0.60
2022-12-13T10:38:36.727Z,0.60
2022-12-13T10:41:04.656Z,0.70
2022-12-13T10:43:32.845Z,0.80
2022-12-13T10:46:01.982Z,0.90
2022-12-13T10:48:38.463Z,0.90
2022-12-13T10:51:10.329Z,1.00
2022-12-13T10:53:47.002Z,1.00
2022-12-13T10:56:23.219Z,1.10
2022-12-13T10:58:53.111Z,1.00
2022-12-13T11:01:22.298Z,1.00
2022-12-13T11:04:02.085Z,1.10
2022-12-13T11:06:43.513Z,1.30
2022-12-13T11:09:23.005Z,1.20
2022-12-13T11:11:51.692Z,1.20
2022-12-13T11:14:32.165Z,1.30
2022-12-13T11:17:05.959Z,1.40
2022-12-13T11:19:38.685Z,1.30
2022-12-13T11:22:08.487Z,1.60
2022-12-13T11:24:38.035Z,1.30
2022-12-13T11:27:15.626Z,1.40
2022-12-13T11:29:50.974Z,1.50
2022-12-13T11:32:24.049Z,1.40
2022-12-13T11:34:56.327Z,1.30
2022-12-13T11:37:29.502Z,1.40
2022-12-13T11:40:01.211Z,1.40
2022-12-13T11:42:31.510Z,1.30
2022-12-13T11:45:02.357Z,1.40
2022-12-13T11:47:34.398Z,1.40
2022-12-13T11:50:03.796Z,1.30
2022-12-13T11:52:36.527Z,1.40
2022-12-13T11:55:06.071Z,1.40
2022-12-13T11:57:38.618Z,1.30
2022-12-13T12:00:13.236Z,1.40
2022-12-13T12:02:42.509Z,1.40
2022-12-13T12:05:28.240Z,1.50
2022-12-13T12:10:52.242Z,1.30
2022-12-13T12:13:22.286Z,1.30
2022-12-13T12:15:55.154Z,1.40
2022-12-13T12:18:23.356Z,1.30
2022-12-13T12:20:57.276Z,1.40
2022-12-13T12:23:31.677Z,1.40
2022-12-13T12:26:04.270Z,1.40
2022-12-13T12:28:43.905Z,1.50
2022-12-13T12:31:21.648Z,1.60
2022-12-13T12:33:54.686Z,1.70
2022-12-13T12:36:30.117Z,1.40
2022-12-13T12:39:06.651Z,1.40
2022-12-13T12:41:45.584Z,1.40
2022-12-13T12:44:17.881Z,1.30
2022-12-13T12:49:57.068Z,1.00
2022-12-13T12:52:29.537Z,1.00
2022-12-13T12:55:04.034Z,1.00
2022-12-13T12:57:39.282Z,1.00
2022-12-13T13:00:11.821Z,0.90
2022-12-13T13:02:42.146Z,0.90
2022-12-13T13:05:13.652Z,0.90
2022-12-13T13:07:51.436Z,1.00
2022-12-13T13:10:26.818Z,1.10
2022-12-13T13:13:11.390Z,1.10
2022-12-13T13:15:57.848Z,1.20
2022-12-13T13:18:45.426Z,1.30
2022-12-13T13:21:33.602Z,1.20
2022-12-13T13:24:21.647Z,1.20
2022-12-13T13:26:51.711Z,1.20
2022-12-13T13:29:43.910Z,1.30
2022-12-13T13:32:35.562Z,1.40
2022-12-13T13:35:20.781Z,1.50
2022-12-13T13:37:48.915Z,1.50
2022-12-13T13:40:31.563Z,1.30
2022-12-13T13:43:06.952Z,1.40
2022-12-13T13:45:53.871Z,1.30
2022-12-13T13:48:26.786Z,1.30
2022-12-13T13:51:15.054Z,1.20
2022-12-13T13:54:01.515Z,1.10
2022-12-13T13:56:35.612Z,1.20
2022-12-13T13:59:17.940Z,1.20
2022-12-13T14:02:01.736Z,1.40
2022-12-13T14:04:44.462Z,1.30
2022-12-13T14:07:30.621Z,1.40
2022-12-13T14:10:08.161Z,1.30
2022-12-13T14:12:53.425Z,1.40
2022-12-13T14:15:49.645Z,1.40
2022-12-13T14:18:32.447Z,1.30
2022-12-13T14:21:04.037Z,1.20
2022-12-13T14:23:38.330Z,1.20
2022-12-13T14:26:17.394Z,1.30
2022-12-13T14:28:48.269Z,1.40
2022-12-13T14:31:22.180Z,1.30
2022-12-13T14:33:51.883Z,1.30
2022-12-13T14:36:26.521Z,1.30
2022-12-13T14:39:00.036Z,1.30
2022-12-13T14:41:28.046Z,1.40
2022-12-13T14:43:55.621Z,1.40
2022-12-13T14:46:24.737Z,1.40
2022-12-13T14:48:53.631Z,1.30
2022-12-13T14:51:34.962Z,1.20
2022-12-13T14:54:04.132Z,1.30
2022-12-13T14:56:31.825Z,1.30
2022-12-13T14:59:00.292Z,1.40
2022-12-13T15:01:31.209Z,1.30
2022-12-13T15:04:18.262Z,1.30
2022-12-13T15:06:48.480Z,1.20
2022-12-13T15:09:16.960Z,1.10
2022-12-13T15:11:45.466Z,1.00
2022-12-13T15:14:15.832Z,0.90
2022-12-13T15:16:50.412Z,0.80
2022-12-13T15:19:20.736Z,0.70
2022-12-13T15:22:02.194Z,0.60
2022-12-13T15:24:31.827Z,0.50
2022-12-13T15:27:00.443Z,0.30
2022-12-13T15:29:30.016Z,0.10
2022-12-13T15:31:59.560Z,0.00
2022-12-13T15:34:37.200Z,-0.10
2022-12-13T15:37:06.516Z,-0.10
2022-12-13T15:39:38.869Z,0.00
2022-12-13T15:42:06.950Z,0.00
2022-12-13T15:44:48.109Z,-0.10
2022-12-13T15:47:27.889Z,-0.10
2022-12-13T15:49:57.848Z,-0.50
2022-12-13T15:52:30.251Z,-0.30
2022-12-13T15:54:59.073Z,-0.30
2022-12-13T15:57:27.465Z,-0.30
2022-12-13T16:00:10.831Z,-0.30
2022-12-13T16:02:47.870Z,-0.40
2022-12-13T16:05:21.488Z,-0.40
2022-12-13T16:07:56.189Z,-0.40
2022-12-13T16:10:25.080Z,-0.50
2022-12-13T16:12:59.068Z,-0.50
2022-12-13T16:15:28.814Z,-0.50
2022-12-13T16:18:07.415Z,-0.50
2022-12-13T16:20:35.572Z,-0.50
2022-12-13T16:23:08.703Z,-0.60
2022-12-13T16:25:36.915Z,-0.60
2022-12-13T16:28:04.667Z,-0.70
2022-12-13T16:30:47.126Z,-0.70
2022-12-13T16:33:30.444Z,-0.70
2022-12-13T16:35:58.472Z,-0.70
2022-12-13T16:38:27.495Z,-0.70
2022-12-13T16:40:56.073Z,-0.70
2022-12-13T16:43:33.073Z,-0.70
2022-12-13T16:47:14.997Z,-0.70
2022-12-13T16:48:52.706Z,-0.70
2022-12-13T16:51:20.303Z,-0.70
2022-12-13T16:53:47.892Z,-0.70
2022-12-13T16:56:21.329Z,-0.70
2022-12-13T16:58:50.363Z,-0.70
2022-12-13T17:01:19.643Z,-0.70
2022-12-13T17:03:47.455Z,-0.80
2022-12-13T17:06:18.387Z,-0.80
2022-12-13T17:08:47.047Z,-0.80
2022-12-13T17:11:17.988Z,-0.80
2022-12-13T17:13:48.057Z,-0.70
2022-12-13T17:16:15.930Z,-0.80
2022-12-13T17:18:43.540Z,-0.90
2022-12-13T17:21:11.421Z,-0.90
2022-12-13T17:23:40.637Z,-0.70
2022-12-13T17:26:09.413Z,-0.90
2022-12-13T17:28:37.102Z,-0.90
2022-12-13T17:31:05.542Z,-1.00
2022-12-13T17:33:33.314Z,-1.00
2022-12-13T17:36:02.045Z,-1.00
2022-12-13T17:38:29.705Z,-1.00
2022-12-13T17:41:00.693Z,-1.00
2022-12-13T17:43:34.320Z,-1.10
2022-12-13T17:46:03.710Z,-1.10
2022-12-13T17:48:37.217Z,-1.10
2022-12-13T17:51:08.269Z,-1.20
2022-12-13T17:53:36.397Z,-1.10
2022-12-13T17:56:07.553Z,-1.00
2022-12-13T17:58:35.670Z,-1.30
2022-12-13T18:01:10.868Z,-1.20
2022-12-13T18:03:38.882Z,-1.30
2022-12-13T18:06:07.725Z,-1.30
2022-12-13T18:08:36.239Z,-1.30
2022-12-13T18:11:31.772Z,-1.40
2022-12-13T18:13:54.540Z,-1.40
2022-12-13T18:16:23.234Z,-1.40
2022-12-13T18:18:55.359Z,-1.40
2022-12-13T18:21:24.246Z,-1.40
2022-12-13T18:23:55.617Z,-1.40
2022-12-13T18:26:25.321Z,-1.50
2022-12-13T18:28:53.088Z,-1.40
2022-12-13T18:31:21.989Z,-1.50
2022-12-13T18:33:50.062Z,-1.50
2022-12-13T18:36:18.302Z,-1.50
2022-12-13T18:38:45.896Z,-1.60
2022-12-13T18:41:14.978Z,-1.60
2022-12-13T18:43:44.572Z,-1.60
2022-12-13T18:46:12.692Z,-1.60
2022-12-13T18:48:40.818Z,-1.60
2022-12-13T18:51:09.596Z,-1.70
2022-12-13T18:53:38.075Z,-1.70
2022-12-13T18:56:08.171Z,-1.70
2022-12-13T18:58:37.620Z,-1.70
2022-12-13T19:01:07.625Z,-1.80
2022-12-13T19:03:37.076Z,-1.80
2022-12-13T19:06:05.458Z,-1.90
2022-12-13T19:08:33.052Z,-1.90
2022-12-13T19:11:01.778Z,-1.90
2022-12-13T19:13:30.029Z,-1.90
2022-12-13T19:15:58.405Z,-1.90
2022-12-13T19:18:28.435Z,-1.90
2022-12-13T19:20:56.160Z,-1.90
2022-12-13T19:23:24.139Z,-2.00
2022-12-13T19:25:52.074Z,-2.00
2022-12-13T19:28:19.653Z,-2.00
2022-12-13T19:30:48.055Z,-2.00
2022-12-13T19:33:16.546Z,-2.00
2022-12-13T19:35:46.737Z,-2.10
2022-12-13T19:38:14.583Z,-2.10
2022-12-13T19:40:42.556Z,-2.10
2022-12-13T19:43:11.196Z,-2.30
2022-12-13T19:45:38.769Z,-2.20
2022-12-13T19:48:06.397Z,-2.20
2022-12-13T19:50:33.943Z,-2.20
2022-12-13T19:53:02.845Z,-2.20
2022-12-13T19:55:30.400Z,-2.20
2022-12-13T19:57:58.799Z,-2.20
2022-12-13T20:00:26.501Z,-2.20
2022-12-13T20:02:54.853Z,-2.20
2022-12-13T20:05:22.495Z,-2.20
2022-12-13T20:07:51.092Z,-2.20
2022-12-13T20:10:20.302Z,-2.20
2022-12-13T20:12:47.922Z,-2.20
2022-12-13T20:15:15.480Z,-2.30
2022-12-13T20:17:43.092Z,-2.30
2022-12-13T20:20:11.392Z,-2.10
2022-12-13T20:22:39.103Z,-2.30
2022-12-13T20:25:07.359Z,-2.30
2022-12-13T20:27:36.432Z,-2.30
2022-12-13T20:30:04.936Z,-2.40
2022-12-13T20:32:32.554Z,-2.30
2022-12-13T20:35:00.162Z,-2.30
2022-12-13T20:37:28.452Z,-2.40
2022-12-13T20:39:56.051Z,-2.40
2022-12-13T20:42:23.631Z,-2.40
2022-12-13T20:44:52.608Z,-2.50
2022-12-13T20:47:20.228Z,-2.50
2022-12-13T20:49:48.374Z,-2.50
2022-12-13T20:52:16.854Z,-2.50
2022-12-13T20:54:44.405Z,-2.50
2022-12-13T20:57:11.936Z,-2.60
2022-12-13T20:59:39.577Z,-2.60
2022-12-13T21:02:08.484Z,-2.60
2022-12-13T21:04:36.088Z,-2.60
2022-12-13T21:07:03.730Z,-2.70
2022-12-13T21:09:31.291Z,-2.70
2022-12-13T21:11:58.833Z,-2.70
2022-12-13T21:14:27.331Z,-2.70
2022-12-13T21:16:55.833Z,-2.80
2022-12-13T21:19:25.737Z,-2.70
2022-12-13T21:21:53.839Z,-2.70
2022-12-13T21:24:22.439Z,-2.70
2022-12-13T21:26:51.110Z,-2.80
2022-12-13T21:29:18.805Z,-2.80
2022-12-13T21:31:48.692Z,-2.80
2022-12-13T21:34:17.559Z,-2.80
2022-12-13T21:36:47.293Z,-2.80
2022-12-13T21:39:15.707Z,-2.80
2022-12-13T21:41:43.565Z,-2.80
2022-12-13T21:44:11.542Z,-2.80
2022-12-13T21:49:26.819Z,-2.90
2022-12-13T21:51:55.996Z,-2.90
2022-12-13T21:54:23.659Z,-2.90
2022-12-13T21:57:08.845Z,-2.60
2022-12-13T21:59:36.600Z,-2.90
2022-12-13T22:02:15.809Z,-2.90
2022-12-13T22:04:44.798Z,-2.90
2022-12-13T22:07:14.916Z,-2.90
2022-12-13T22:09:42.561Z,-2.90
2022-12-13T22:12:11.186Z,-2.90
2022-12-13T22:14:38.752Z,-2.80
2022-12-13T22:17:06.444Z,-3.10
2022-12-13T22:19:34.055Z,-3.10
2022-12-13T22:22:01.784Z,-3.10
2022-12-13T22:24:30.820Z,-3.10
2022-12-13T22:26:58.428Z,-3.10
2022-12-13T22:29:26.049Z,-3.20
2022-12-13T22:31:53.758Z,-3.20
2022-12-13T22:34:21.402Z,-3.20
2022-12-13T22:36:49.076Z,-3.20
2022-12-13T22:39:17.772Z,-3.30
2022-12-13T22:41:47.496Z,-3.20
2022-12-13T22:44:15.465Z,-3.20
2022-12-13T22:46:43.277Z,-3.30
2022-12-13T22:49:14.351Z,-3.30
2022-12-13T22:51:42.348Z,-3.40
2022-12-13T22:54:10.024Z,-3.40
2022-12-13T22:56:38.037Z,-3.40
2022-12-13T22:59:08.191Z,-3.40
2022-12-13T23:01:37.259Z,-3.40
2022-12-13T23:04:05.865Z,-3.40
2022-12-13T23:06:34.416Z,-3.40
2022-12-13T23:09:03.415Z,-3.20
2022-12-13T23:11:54.179Z,-3.40
2022-12-13T23:14:28.838Z,-3.40
2022-12-13T23:16:56.526Z,-3.40
2022-12-13T23:19:48.877Z,-3.40
2022-12-13T23:22:12.072Z,-3.40
2022-12-13T23:24:39.629Z,-3.40
2022-12-13T23:27:07.295Z,-3.40
2022-12-13T23:29:36.289Z,-3.50
2022-12-13T23:32:03.901Z,-3.30
2022-12-13T23:34:31.552Z,-3.40
2022-12-13T23:36:59.137Z,-3.40
2022-12-13T23:39:26.713Z,-3.50
2022-12-13T23:41:54.278Z,-3.40
2022-12-13T23:44:21.992Z,-3.50
2022-12-13T23:46:50.877Z,-3.50
2022-12-13T23:49:18.416Z,-3.10
2022-12-13T23:51:45.978Z,-3.40
2022-12-13T23:54:16.374Z,-3.40
2022-12-13T23:56:44.200Z,-3.40
2022-12-13T23:59:12.049Z,-3.40
